Terminal Aerodrome Forecast
Issued by NWS

Home | Current Version | Previous Version | Text Only | Print | Product List | Glossary On
Versions: 1 2 3 4 5 6 7 8 9 10 11 12 13 14 15 16 17 18 19
000
FTUS43 KEAX 281504 AAA
TAFMKC
TAF AMD
KMKC 281504Z 2815/2912 18010KT P6SM VCSH OVC120
     FM281700 19015G23KT P6SM BKN100
     FM282200 18008KT P6SM VCTS BKN040CB
     FM290400 20007KT P6SM BKN040=

USA.gov is the U.S. government's official web portal to all federal, state and local government web resources and services.